RYR35DA EBCI-EGPH
Flight info
| Callsign | RYR35DA |
|---|---|
| Flight time | N/A |
| Altitude | 38000 |
| Route | CIV UY50 LUMEN L610 KOPUL DCT SABER DCT SIVDA DCT BETAX L613 HALIF UN590 ABEVI UN601 INPIP |
| Aircraft | B738/M-SDE2E3FGHIRWXY/LB1 |
Departure
| Time | 2026-05-01 15:31 |
|---|---|
| Airport | Brussels South Charleroi Airport (EBCI) |
Arrival
| Time | N/A |
|---|---|
| Airport | Edinburgh Airport (EGPH) |
| Time | Latitude | Longitude | Altitude | Speed | Heading |
|---|---|---|---|---|---|
| 2026-05-01 15:03 | 50.46820 | 4.46932 | 617 ft | 0 kts | 335° |
| 2026-05-01 15:21 | 50.46815 | 4.46936 | 611 ft | 2 kts | 338° |
| 2026-05-01 15:22 | 50.46777 | 4.46942 | 619 ft | 3 kts | 24° |
| 2026-05-01 15:22 | 50.46762 | 4.46926 | 627 ft | 3 kts | 54° |
| 2026-05-01 15:22 | 50.46756 | 4.46913 | 627 ft | 0 kts | 65° |
| 2026-05-01 15:27 | 50.46759 | 4.46920 | 611 ft | 2 kts | 65° |
| 2026-05-01 15:27 | 50.46771 | 4.46962 | 623 ft | 6 kts | 65° |
| 2026-05-01 15:27 | 50.46795 | 4.47048 | 614 ft | 11 kts | 65° |
| 2026-05-01 15:28 | 50.46875 | 4.47325 | 620 ft | 15 kts | 65° |
| 2026-05-01 15:28 | 50.46918 | 4.47470 | 621 ft | 14 kts | 65° |
| 2026-05-01 15:28 | 50.46931 | 4.47587 | 616 ft | 10 kts | 117° |
| 2026-05-01 15:29 | 50.46836 | 4.47669 | 616 ft | 2 kts | 155° |
| 2026-05-01 15:29 | 50.46820 | 4.47681 | 614 ft | 3 kts | 155° |
| 2026-05-01 15:29 | 50.46690 | 4.47700 | 618 ft | 11 kts | 227° |
| 2026-05-01 15:30 | 50.46679 | 4.47668 | 616 ft | 0 kts | 245° |
| 2026-05-01 15:31 | 50.45529 | 4.43684 | 1117 ft | 178 kts | 245° |
| 2026-05-01 15:31 | 50.44500 | 4.40050 | 2642 ft | 184 kts | 244° |
| 2026-05-01 15:32 | 50.43326 | 4.35967 | 3327 ft | 225 kts | 245° |
| 2026-05-01 15:32 | 50.41916 | 4.31072 | 3991 ft | 263 kts | 244° |
| 2026-05-01 15:33 | 50.41608 | 4.23003 | 6413 ft | 272 kts | 310° |
| 2026-05-01 15:34 | 50.45660 | 4.16662 | 8476 ft | 284 kts | 295° |